Terminal Aerodrome Forecast
Issued by NWS Chicago, IL

Home | Current Version | Previous Version | Text Only | Print | Product List | Glossary Off
Versions: 1 2 3 4 5 6 7 8 9 10 11 12 13 14 15 16 17 18 19 20 21 22 23 24 25 26 27 28 29 30 31 32 33

000
FTUS43 KLOT 010257 AAA
TAFRFD
TAF AMD
KRFD 010257Z 0103/0124 15004KT P6SM SKC
     FM010600 18004KT 5SM BR SKC
      TEMPO 0109/0112 2SM BR
     FM011300 20008KT P6SM SCT030
     FM011800 22012KT P6SM SCT030 BKN250=

USA.gov is the U.S. government's official web portal to all federal, state and local government web resources and services.